ENTCENAT

Guest
Details From ENTC - Tromso Langnes
To ENAT - ALTA
Flight Number -
Tags decoded
Created
Modified
Stats Distance 94 nm / 174 km
Max Altitude 0 ft / 0 m
Waypoints 3
Social Downloads 0
Likes 0
Share VATSIM

Download

Looking for another format? Having issues loading an existing format? Contact us
Advertisement - Login to hide

Notes

Requested: ENTC IDLIN M609 ADAPU ENAT Unmatched points: M609 ADAPU

Route

ENTC IDLIN ENAT

ID Type Via Altitude Latitude Longitude Leg Dist Tot Dist Heading (true) Name
O ENTC APT - 0 ft / 0 m 69.68287˚ 18.91936˚ - 0 nm - Tromso Langnes
IDLIN FIX - 0 ft / 0 m 69.81806˚ 20.00000˚ 23 nm 23 nm 70° / 71° -
O ENAT APT - 0 ft / 0 m 69.97735˚ 23.36543˚ 70 nm 93 nm 81° / 84° ALTA

Altitude Profile

Advertisement - Login to hide

ENTC

Details ICAO ENTC (TOS)
Name Tromso Langnes
Region Norway
Timezone Europe/Oslo (UTC+1.0)
Stats Elevation 31 ft / 9 m (AMSL)
Location 69.682866° 18.919363°
Runways 1
Magnetic Variation 8.796° E

METAR

ENTC 111650Z 19016KT 9999 SCT070 01/M06 Q0996 NOSIG RMK WIND 2600FT 20017KT

Decode

TAF

TAF ENTC 111100Z 1112/1212 20009KT CAVOK TEMPO 1115/1203 20019KT

Decode

Departure Runways

ID Width Length Bearing (true) Bearing (mag) Surface Threshold Offset Overrun Length
01 141 ft / 43 m 7,740 ft / 2,359 m 12.19° 3.39° Asphalt 0 ft / 0 m 289 ft / 88 m
19 141 ft / 43 m 7,740 ft / 2,359 m 192.21° 183.41° Asphalt 1,227 ft / 374 m 482 ft / 147 m

ENAT

Details ICAO ENAT (ALF)
Name ALTA
Region Norway
Timezone Europe/Oslo (UTC+1.0)
Stats Elevation 9 ft / 3 m (AMSL)
Location 69.977351° 23.365433°
Runways 1
Magnetic Variation 11.443° E

METAR

ENAT 111650Z VRB02KT CAVOK M03/M07 Q0997 RMK WIND 700FT 18015KT

Decode

TAF

Not found

Destination Runways

ID Width Length Bearing (true) Bearing (mag) Surface Threshold Offset Overrun Length
11 131 ft / 40 m 7,140 ft / 2,176 m 121.18° 109.74° Asphalt 674 ft / 205 m 0 ft / 0 m
29 131 ft / 40 m 7,140 ft / 2,176 m 301.22° 289.78° Asphalt 418 ft / 127 m 0 ft / 0 m

Approach Navaids

Runway Type Ident Frequency Range Bearing (true) Bearing (mag) Slope Elevation
11 Localiser AT 108.90 MHz 18 nm / 33 km 121.22° 109.78° - 9 ft / 3 m (AMSL)
11 Glidescope AT 108.90 MHz 10 nm / 19 km 121.20° 109.76° 3.70° 10 ft / 3 m (AMSL)

Popular Alternatives